createdAt,value
2019-05-10T00:01:43.482Z,944.52
2019-05-10T00:04:09.794Z,944.43
2019-05-10T00:06:36.128Z,944.39
2019-05-10T00:09:02.458Z,944.46
2019-05-10T00:11:28.764Z,944.55
2019-05-10T00:13:55.088Z,944.57
2019-05-10T00:16:21.400Z,944.65
2019-05-10T00:18:47.706Z,944.61
2019-05-10T00:21:14.036Z,944.57
2019-05-10T00:23:40.341Z,944.49
2019-05-10T00:26:06.685Z,944.51
2019-05-10T00:28:33.015Z,944.59
2019-05-10T00:30:59.321Z,944.53
2019-05-10T00:33:25.651Z,944.51
2019-05-10T00:35:51.961Z,944.49
2019-05-10T00:38:18.286Z,944.38
2019-05-10T00:40:44.595Z,944.38
2019-05-10T00:43:10.918Z,944.43
2019-05-10T00:45:37.230Z,944.48
2019-05-10T00:48:03.551Z,944.48
2019-05-10T00:50:29.881Z,944.44
2019-05-10T00:52:56.186Z,944.52
2019-05-10T00:55:22.515Z,944.49
2019-05-10T00:57:48.817Z,944.42
2019-05-10T01:00:15.146Z,944.40
2019-05-10T01:02:41.458Z,944.42
2019-05-10T01:05:07.793Z,944.42
2019-05-10T01:07:34.125Z,944.45
2019-05-10T01:10:00.430Z,944.48
2019-05-10T01:12:26.760Z,944.51
2019-05-10T01:14:53.067Z,944.53
2019-05-10T01:17:19.400Z,944.59
2019-05-10T01:19:45.708Z,944.55
2019-05-10T01:22:12.031Z,944.62
2019-05-10T01:24:38.347Z,944.66
2019-05-10T01:27:04.659Z,944.63
2019-05-10T01:29:30.990Z,944.54
2019-05-10T01:31:57.305Z,944.69
2019-05-10T01:34:23.635Z,944.66
2019-05-10T01:36:50.009Z,944.62
2019-05-10T01:39:16.314Z,944.61
2019-05-10T01:41:42.639Z,944.62
2019-05-10T01:44:08.945Z,944.63
2019-05-10T01:46:35.258Z,944.59
2019-05-10T01:49:01.592Z,944.68
2019-05-10T01:51:28.116Z,944.62
2019-05-10T01:53:54.251Z,944.70
2019-05-10T01:56:20.560Z,944.66
2019-05-10T01:58:46.891Z,944.58
2019-05-10T02:01:13.197Z,944.63
2019-05-10T02:03:39.523Z,944.70
2019-05-10T02:06:05.851Z,944.67
2019-05-10T02:08:32.159Z,944.73
2019-05-10T02:10:58.486Z,944.76
2019-05-10T02:13:24.803Z,944.77
2019-05-10T02:15:51.140Z,944.84
2019-05-10T02:18:17.442Z,944.82
2019-05-10T02:20:43.820Z,944.88
2019-05-10T02:23:10.146Z,944.82
2019-05-10T02:25:36.460Z,944.83
2019-05-10T02:28:02.788Z,944.82
2019-05-10T02:30:29.097Z,944.74
2019-05-10T02:32:55.430Z,944.77
2019-05-10T02:35:21.818Z,944.82
2019-05-10T02:37:48.109Z,944.80
2019-05-10T02:40:14.390Z,944.86
2019-05-10T02:42:40.729Z,944.84
2019-05-10T02:45:07.051Z,944.79
2019-05-10T02:47:33.364Z,944.88
2019-05-10T02:49:59.685Z,944.91
2019-05-10T02:52:25.998Z,944.91
2019-05-10T02:54:52.303Z,944.94
2019-05-10T02:57:18.637Z,944.98
2019-05-10T02:59:44.959Z,945.02
2019-05-10T03:02:11.288Z,945.06
2019-05-10T03:04:37.621Z,945.02
2019-05-10T03:07:03.929Z,944.97
2019-05-10T03:09:30.254Z,944.94
2019-05-10T03:11:56.571Z,945.03
2019-05-10T03:14:22.907Z,945.07
2019-05-10T03:16:49.206Z,945.04
2019-05-10T03:19:15.532Z,944.99
2019-05-10T03:21:41.837Z,945.01
2019-05-10T03:24:08.144Z,944.89
2019-05-10T03:26:49.609Z,944.94
2019-05-10T03:29:00.779Z,944.94
2019-05-10T03:31:27.115Z,944.96
2019-05-10T03:33:56.491Z,944.99
2019-05-10T03:36:19.738Z,944.94
2019-05-10T03:38:46.050Z,945.02
2019-05-10T03:41:12.402Z,944.99
2019-05-10T03:43:38.702Z,945.04
2019-05-10T03:46:05.007Z,945.01
2019-05-10T03:48:31.338Z,945.02
2019-05-10T03:50:57.638Z,944.98
2019-05-10T03:53:23.978Z,945.08
2019-05-10T03:55:50.280Z,945.11
2019-05-10T03:58:16.609Z,945.13
2019-05-10T04:00:42.916Z,945.15
2019-05-10T04:03:09.222Z,945.22
2019-05-10T04:05:35.764Z,945.32
2019-05-10T04:08:01.890Z,945.44
2019-05-10T04:10:28.228Z,945.41
2019-05-10T04:12:54.567Z,945.41
2019-05-10T04:15:20.870Z,945.41
2019-05-10T04:17:50.203Z,945.33
2019-05-10T04:20:13.507Z,945.37
2019-05-10T04:22:39.823Z,945.35
2019-05-10T04:25:06.166Z,945.35
2019-05-10T04:27:33.269Z,945.37
2019-05-10T04:29:58.803Z,945.48
2019-05-10T04:32:25.115Z,945.42
2019-05-10T04:34:51.450Z,945.52
2019-05-10T04:37:17.764Z,945.72
2019-05-10T04:39:44.102Z,945.99
2019-05-10T04:42:10.431Z,946.00
2019-05-10T04:44:36.740Z,946.24
2019-05-10T04:47:03.172Z,946.18
2019-05-10T04:49:29.479Z,946.18
2019-05-10T04:51:55.795Z,946.28
2019-05-10T04:54:22.129Z,946.23
2019-05-10T04:56:48.442Z,946.25
2019-05-10T04:59:14.766Z,946.23
2019-05-10T05:01:41.115Z,946.27
2019-05-10T05:04:07.436Z,946.19
2019-05-10T05:06:33.768Z,946.15
2019-05-10T05:09:00.087Z,946.24
2019-05-10T05:11:26.427Z,946.28
2019-05-10T05:13:52.738Z,946.32
2019-05-10T05:16:19.065Z,946.30
2019-05-10T05:18:45.521Z,946.34
2019-05-10T05:21:11.686Z,946.28
2019-05-10T05:23:38.052Z,946.25
2019-05-10T05:26:04.382Z,946.25
2019-05-10T05:28:30.702Z,946.29
2019-05-10T05:30:57.035Z,946.33
2019-05-10T05:33:23.348Z,946.29
2019-05-10T05:35:49.674Z,946.34
2019-05-10T05:38:15.978Z,946.36
2019-05-10T05:40:42.318Z,946.37
2019-05-10T05:43:09.848Z,946.34
2019-05-10T05:45:35.684Z,946.41
2019-05-10T05:48:01.443Z,946.40
2019-05-10T05:50:27.809Z,946.45
2019-05-10T05:52:54.218Z,946.38
2019-05-10T05:55:22.911Z,946.38
2019-05-10T05:57:46.853Z,946.46
2019-05-10T06:00:13.192Z,946.49
2019-05-10T06:02:44.180Z,946.49
2019-05-10T06:05:05.833Z,946.62
2019-05-10T06:07:37.998Z,946.64
2019-05-10T06:09:58.501Z,946.69
2019-05-10T06:12:24.814Z,946.67
2019-05-10T06:14:52.346Z,946.63
2019-05-10T06:17:17.494Z,946.77
2019-05-10T06:19:43.804Z,946.75
2019-05-10T06:22:10.135Z,946.85
2019-05-10T06:24:36.448Z,946.67
2019-05-10T06:27:03.508Z,946.77
2019-05-10T06:29:29.159Z,946.73
2019-05-10T06:31:58.699Z,946.73
2019-05-10T06:34:21.837Z,946.69
2019-05-10T06:36:48.175Z,946.73
2019-05-10T06:39:14.517Z,946.85
2019-05-10T06:41:40.836Z,946.78
2019-05-10T06:44:07.155Z,946.80
2019-05-10T06:46:33.467Z,946.86
2019-05-10T06:49:07.255Z,946.69
2019-05-10T06:51:26.152Z,946.72
2019-05-10T06:53:53.993Z,946.76
2019-05-10T06:56:18.789Z,946.81
2019-05-10T06:58:45.127Z,946.77
2019-05-10T07:01:11.430Z,946.84
2019-05-10T07:03:37.761Z,946.84
2019-05-10T07:06:04.073Z,946.86
2019-05-10T07:08:43.359Z,946.83
2019-05-10T07:10:56.743Z,946.89
2019-05-10T07:13:23.079Z,946.94
2019-05-10T07:15:49.387Z,946.90
2019-05-10T07:18:16.859Z,946.89
2019-05-10T07:20:43.324Z,946.88
2019-05-10T07:23:08.455Z,946.92
2019-05-10T07:25:37.737Z,946.91
2019-05-10T07:28:01.145Z,946.92
2019-05-10T07:30:27.485Z,946.79
2019-05-10T07:32:54.654Z,946.96
2019-05-10T07:35:20.137Z,946.84
2019-05-10T07:37:47.717Z,946.88
2019-05-10T07:40:12.771Z,946.93
2019-05-10T07:42:39.881Z,947.01
2019-05-10T07:45:05.406Z,947.08
2019-05-10T07:47:32.638Z,947.06
2019-05-10T07:49:58.044Z,947.12
2019-05-10T07:52:24.421Z,947.15
2019-05-10T07:54:50.728Z,947.23
2019-05-10T07:57:18.687Z,947.29
2019-05-10T07:59:50.820Z,947.28
2019-05-10T08:02:12.738Z,947.25
2019-05-10T08:04:38.297Z,947.35
2019-05-10T08:07:02.338Z,947.40
2019-05-10T08:09:31.507Z,947.29
2019-05-10T08:12:00.619Z,947.32
2019-05-10T08:14:21.286Z,947.39
2019-05-10T08:16:51.910Z,947.43
2019-05-10T08:19:13.960Z,947.34
2019-05-10T08:21:41.930Z,947.42
2019-05-10T08:24:13.494Z,947.28
2019-05-10T08:26:32.950Z,947.34
2019-05-10T08:28:59.238Z,947.39
2019-05-10T08:31:26.369Z,947.40
2019-05-10T08:33:58.545Z,947.42
2019-05-10T08:36:18.183Z,947.40
2019-05-10T08:38:50.055Z,947.47
2019-05-10T08:41:14.663Z,947.49
2019-05-10T08:43:38.896Z,947.54
2019-05-10T08:46:03.565Z,947.51
2019-05-10T08:48:29.873Z,947.55
2019-05-10T08:50:57.542Z,947.57
2019-05-10T08:53:23.077Z,947.57
2019-05-10T08:55:48.934Z,947.48
2019-05-10T09:01:15.289Z,947.55
2019-05-10T09:03:25.816Z,947.57
2019-05-10T09:05:52.623Z,947.66
2019-05-10T09:08:20.330Z,947.55
2019-05-10T09:10:44.760Z,947.59
2019-05-10T09:13:12.869Z,947.63
2019-05-10T09:15:43.301Z,947.64
2019-05-10T09:18:07.333Z,947.66
2019-05-10T09:20:31.946Z,947.68
2019-05-10T09:22:56.488Z,947.69
2019-05-10T09:25:29.224Z,947.72
2019-05-10T09:27:49.147Z,947.68
2019-05-10T09:30:18.467Z,947.61
2019-05-10T09:32:43.393Z,947.64
2019-05-10T09:35:09.349Z,947.65
2019-05-10T09:37:34.426Z,947.64
2019-05-10T09:40:06.951Z,947.60
2019-05-10T09:42:35.068Z,947.63
2019-05-10T09:44:53.392Z,947.64
2019-05-10T09:47:22.080Z,947.58
2019-05-10T09:49:56.442Z,947.68
2019-05-10T09:52:14.942Z,947.67
2019-05-10T09:54:39.279Z,947.65
2019-05-10T09:57:08.002Z,947.63
2019-05-10T09:59:31.944Z,947.59
2019-05-10T10:01:58.440Z,947.54
2019-05-10T10:04:24.764Z,947.60
2019-05-10T10:06:52.822Z,947.56
2019-05-10T10:09:17.390Z,947.59
2019-05-10T10:11:48.535Z,947.57
2019-05-10T10:14:10.286Z,947.56
2019-05-10T10:16:36.355Z,947.62
2019-05-10T10:19:02.665Z,947.56
2019-05-10T10:21:34.931Z,947.62
2019-05-10T10:23:57.416Z,947.60
2019-05-10T10:26:22.503Z,947.68
2019-05-10T10:28:49.803Z,947.71
2019-05-10T10:31:26.260Z,947.64
2019-05-10T10:33:42.879Z,947.61
2019-05-10T10:36:09.957Z,947.56
2019-05-10T10:38:37.174Z,947.65
2019-05-10T10:40:59.769Z,947.67
2019-05-10T10:43:27.259Z,947.82
2019-05-10T10:45:52.426Z,947.83
2019-05-10T10:48:18.761Z,947.82
2019-05-10T10:50:53.829Z,947.92
2019-05-10T10:53:11.404Z,947.95
2019-05-10T10:55:40.134Z,947.85
2019-05-10T10:58:04.032Z,947.92
2019-05-10T11:00:30.409Z,948.08
2019-05-10T11:02:56.715Z,948.03
2019-05-10T11:05:23.052Z,948.14
2019-05-10T11:07:51.253Z,948.07
2019-05-10T11:10:19.002Z,948.12
2019-05-10T11:12:41.980Z,948.16
2019-05-10T11:15:08.336Z,948.16
2019-05-10T11:17:34.640Z,948.23
2019-05-10T11:20:00.966Z,948.15
2019-05-10T11:22:27.610Z,948.10
2019-05-10T11:25:02.963Z,948.08
2019-05-10T11:27:19.929Z,948.01
2019-05-10T11:29:46.264Z,948.02
2019-05-10T11:32:16.612Z,947.94
2019-05-10T11:34:39.035Z,947.91
2019-05-10T11:37:05.221Z,947.89
2019-05-10T11:39:33.247Z,947.81
2019-05-10T11:42:02.350Z,947.80
2019-05-10T11:44:25.929Z,947.88
2019-05-10T11:46:50.873Z,947.89
2019-05-10T11:49:16.842Z,947.80
2019-05-10T11:51:47.944Z,947.85
2019-05-10T11:54:11.127Z,947.83
2019-05-10T11:56:35.794Z,947.83
2019-05-10T11:59:02.747Z,947.81
2019-05-10T12:01:28.448Z,947.80
2019-05-10T12:03:54.759Z,947.85
2019-05-10T12:06:21.468Z,947.84
2019-05-10T12:08:47.385Z,947.87
2019-05-10T12:11:27.563Z,947.92
2019-05-10T12:13:40.020Z,947.86
2019-05-10T12:16:06.330Z,947.88
2019-05-10T12:18:36.146Z,947.80
2019-05-10T12:21:09.033Z,947.77
2019-05-10T12:23:31.205Z,948.03
2019-05-10T12:26:57.042Z,947.88
2019-05-10T12:28:23.988Z,947.81
2019-05-10T12:30:44.289Z,947.78
2019-05-10T12:33:23.669Z,947.82
2019-05-10T12:35:40.854Z,947.80
2019-05-10T12:38:03.227Z,947.75
2019-05-10T12:40:31.475Z,947.71
2019-05-10T12:42:55.924Z,947.73
2019-05-10T12:45:23.375Z,947.70
2019-05-10T12:47:51.412Z,947.72
2019-05-10T12:50:14.911Z,947.80
2019-05-10T12:52:43.280Z,947.77
2019-05-10T12:55:07.564Z,947.78
2019-05-10T12:57:33.889Z,947.74
2019-05-10T13:00:00.203Z,947.83
2019-05-10T13:02:26.546Z,947.83
2019-05-10T13:04:54.158Z,947.82
2019-05-10T13:07:19.176Z,947.78
2019-05-10T13:09:49.469Z,947.75
2019-05-10T13:12:11.811Z,947.83
2019-05-10T13:14:40.225Z,947.83
2019-05-10T13:17:09.918Z,947.83
2019-05-10T13:19:30.755Z,947.81
2019-05-10T13:21:58.904Z,947.84
2019-05-10T13:24:23.398Z,947.89
2019-05-10T13:26:49.721Z,947.96
2019-05-10T13:29:16.048Z,948.00
2019-05-10T13:31:44.286Z,948.00
2019-05-10T13:34:08.687Z,947.92
2019-05-10T13:36:37.108Z,947.92
2019-05-10T13:39:01.334Z,947.83
2019-05-10T13:41:27.654Z,947.89
2019-05-10T13:43:58.976Z,947.94
2019-05-10T13:46:20.285Z,947.99
2019-05-10T13:48:46.637Z,948.02
2019-05-10T13:51:12.995Z,948.04
2019-05-10T13:53:39.317Z,947.98
2019-05-10T13:56:05.648Z,947.99
2019-05-10T13:58:31.956Z,948.05
2019-05-10T14:00:58.287Z,948.09
2019-05-10T14:03:24.595Z,948.25
2019-05-10T14:05:50.930Z,948.16
2019-05-10T14:08:17.297Z,948.22
2019-05-10T14:10:43.572Z,948.16
2019-05-10T14:13:09.899Z,948.19
2019-05-10T14:15:36.235Z,948.17
2019-05-10T14:18:02.564Z,948.22
2019-05-10T14:20:28.878Z,948.16
2019-05-10T14:22:58.360Z,948.17
2019-05-10T14:25:21.528Z,948.13
2019-05-10T14:27:47.847Z,948.10
2019-05-10T14:30:16.253Z,948.05
2019-05-10T14:32:40.484Z,948.09
2019-05-10T14:35:06.810Z,948.14
2019-05-10T14:37:33.157Z,948.18
2019-05-10T14:39:59.514Z,948.08
2019-05-10T14:42:31.291Z,948.13
2019-05-10T14:44:52.161Z,948.06
2019-05-10T14:47:18.469Z,948.13
2019-05-10T14:49:47.032Z,948.09
2019-05-10T14:52:11.102Z,948.15
2019-05-10T14:54:43.579Z,948.14
2019-05-10T14:57:03.742Z,948.17
2019-05-10T14:59:30.067Z,948.13
2019-05-10T15:01:56.373Z,948.12
2019-05-10T15:04:43.721Z,948.17
2019-05-10T15:06:49.035Z,948.17
2019-05-10T15:09:21.726Z,948.09
2019-05-10T15:11:41.814Z,948.08
2019-05-10T15:14:08.191Z,948.10
2019-05-10T15:16:34.456Z,948.14
2019-05-10T15:19:00.787Z,948.06
2019-05-10T15:21:27.139Z,948.10
2019-05-10T15:23:55.411Z,948.10
2019-05-10T15:26:19.789Z,948.04
2019-05-10T15:28:46.099Z,948.06
2019-05-10T15:31:12.452Z,948.00
2019-05-10T15:33:38.764Z,948.05
2019-05-10T15:36:05.092Z,948.06
2019-05-10T15:38:31.398Z,948.10
2019-05-10T15:40:57.721Z,948.08
2019-05-10T15:43:24.030Z,948.07
2019-05-10T15:45:54.989Z,948.01
2019-05-10T15:48:16.696Z,948.03
2019-05-10T15:50:43.004Z,948.04
2019-05-10T15:53:09.369Z,948.01
2019-05-10T15:55:35.677Z,948.01
2019-05-10T15:58:01.969Z,948.04
2019-05-10T16:00:38.107Z,948.01
2019-05-10T16:02:54.609Z,948.02
2019-05-10T16:05:29.265Z,947.92
2019-05-10T16:07:51.628Z,947.98
2019-05-10T16:10:13.555Z,947.98
2019-05-10T16:12:42.947Z,948.00
2019-05-10T16:15:06.253Z,948.00
2019-05-10T16:17:32.689Z,948.04
2019-05-10T16:20:01.244Z,948.09
2019-05-10T16:22:30.343Z,948.14
2019-05-10T16:24:51.693Z,948.13
2019-05-10T16:27:18.017Z,948.10
2019-05-10T16:29:44.335Z,948.16
2019-05-10T16:32:10.637Z,948.17
2019-05-10T16:34:36.987Z,948.16
2019-05-10T16:37:03.293Z,948.13
2019-05-10T16:39:29.622Z,948.17
2019-05-10T16:41:55.937Z,948.17
2019-05-10T16:44:22.264Z,948.23
2019-05-10T16:46:48.600Z,948.25
2019-05-10T16:49:15.440Z,948.18
2019-05-10T16:51:42.427Z,948.20
2019-05-10T16:54:09.835Z,948.30
2019-05-10T16:56:33.919Z,948.21
2019-05-10T16:59:00.274Z,948.20
2019-05-10T17:01:27.762Z,948.23
2019-05-10T17:03:59.898Z,948.26
2019-05-10T17:06:19.245Z,948.31
2019-05-10T17:08:45.579Z,948.32
2019-05-10T17:11:12.010Z,948.35
2019-05-10T17:13:41.629Z,948.36
2019-05-10T17:16:04.528Z,948.45
2019-05-10T17:18:30.835Z,948.45
2019-05-10T17:20:57.174Z,948.48
2019-05-10T17:23:23.510Z,948.48
2019-05-10T17:25:49.842Z,948.49
2019-05-10T17:28:16.187Z,948.50
2019-05-10T17:30:44.890Z,948.56
2019-05-10T17:33:10.814Z,948.64
2019-05-10T17:35:36.580Z,948.70
2019-05-10T17:38:01.451Z,948.63
2019-05-10T17:40:27.759Z,948.70
2019-05-10T17:42:54.080Z,948.73
2019-05-10T17:45:20.412Z,948.69
2019-05-10T17:47:46.744Z,948.75
2019-05-10T17:50:13.064Z,948.70
2019-05-10T17:52:39.364Z,948.74
2019-05-10T17:55:10.737Z,948.76
2019-05-10T17:57:32.000Z,948.79
2019-05-10T17:59:58.336Z,948.82
2019-05-10T18:02:24.660Z,948.83
2019-05-10T18:04:50.967Z,948.84
2019-05-10T18:07:17.297Z,948.81
2019-05-10T18:09:43.602Z,948.92
2019-05-10T18:12:09.939Z,948.92
2019-05-10T18:14:36.274Z,948.98
2019-05-10T18:17:02.599Z,948.99
2019-05-10T18:19:28.906Z,949.04
2019-05-10T18:22:00.888Z,949.06
2019-05-10T18:24:21.555Z,949.06
2019-05-10T18:26:47.864Z,949.14
2019-05-10T18:29:14.199Z,949.10
2019-05-10T18:31:40.527Z,949.16
2019-05-10T18:34:06.829Z,949.16
2019-05-10T18:36:50.397Z,949.18
2019-05-10T18:38:59.465Z,949.21
2019-05-10T18:41:25.805Z,949.22
2019-05-10T18:43:52.135Z,949.27
2019-05-10T18:46:18.446Z,949.29
2019-05-10T18:48:44.780Z,949.36
2019-05-10T18:51:11.192Z,949.34
2019-05-10T18:53:37.510Z,949.34
2019-05-10T18:56:03.842Z,949.33
2019-05-10T18:58:31.621Z,949.33
2019-05-10T19:01:00.736Z,949.34
2019-05-10T19:03:27.991Z,949.42
2019-05-10T19:05:49.132Z,949.40
2019-05-10T19:08:15.438Z,949.50
2019-05-10T19:10:41.795Z,949.57
2019-05-10T19:13:08.321Z,949.54
2019-05-10T19:15:34.604Z,949.50
2019-05-10T19:18:00.829Z,949.54
2019-05-10T19:20:27.146Z,949.61
2019-05-10T19:22:53.475Z,949.58
2019-05-10T19:25:19.779Z,949.60
2019-05-10T19:27:50.621Z,949.52
2019-05-10T19:30:12.476Z,949.60
2019-05-10T19:32:38.818Z,949.59
2019-05-10T19:35:05.176Z,949.61
2019-05-10T19:37:34.282Z,949.63
2019-05-10T19:39:57.853Z,949.65
2019-05-10T19:42:24.156Z,949.65
2019-05-10T19:44:50.578Z,949.62
2019-05-10T19:47:17.761Z,949.68
2019-05-10T19:49:49.205Z,949.72
2019-05-10T19:52:09.525Z,949.76
2019-05-10T19:54:35.858Z,949.75
2019-05-10T19:57:02.185Z,949.73
2019-05-10T19:59:28.516Z,949.75
2019-05-10T20:01:54.816Z,949.72
2019-05-10T20:04:21.158Z,949.71
2019-05-10T20:06:47.454Z,949.71
2019-05-10T20:09:13.780Z,949.69
2019-05-10T20:11:40.088Z,949.71
2019-05-10T20:14:07.595Z,949.77
2019-05-10T20:16:32.726Z,949.76
2019-05-10T20:18:59.037Z,949.78
2019-05-10T20:21:25.367Z,949.78
2019-05-10T20:23:51.678Z,949.85
2019-05-10T20:26:18.008Z,949.90
2019-05-10T20:28:44.354Z,949.85
2019-05-10T20:31:10.756Z,949.88
2019-05-10T20:33:37.085Z,949.94
2019-05-10T20:36:03.392Z,949.95
2019-05-10T20:38:29.705Z,949.98
2019-05-10T20:40:56.030Z,949.98
2019-05-10T20:43:22.337Z,949.91
2019-05-10T20:45:48.669Z,950.00
2019-05-10T20:48:15.000Z,949.97
2019-05-10T20:50:41.310Z,949.98
2019-05-10T20:53:07.632Z,950.03
2019-05-10T20:55:33.969Z,950.14
2019-05-10T20:58:00.291Z,950.20
2019-05-10T21:00:26.597Z,950.16
2019-05-10T21:02:52.952Z,950.18
2019-05-10T21:05:19.257Z,950.22
2019-05-10T21:07:45.570Z,950.22
2019-05-10T21:10:11.896Z,950.17
2019-05-10T21:12:38.196Z,950.21
2019-05-10T21:15:04.574Z,950.35
2019-05-10T21:17:30.846Z,950.34
2019-05-10T21:19:57.152Z,950.39
2019-05-10T21:22:23.484Z,950.42
2019-05-10T21:24:49.791Z,950.44
2019-05-10T21:27:16.125Z,950.37
2019-05-10T21:29:42.441Z,950.42
2019-05-10T21:32:08.809Z,950.38
2019-05-10T21:34:35.117Z,950.39
2019-05-10T21:37:01.453Z,950.44
2019-05-10T21:39:27.753Z,950.47
2019-05-10T21:41:54.104Z,950.37
2019-05-10T21:44:20.467Z,950.43
2019-05-10T21:46:46.761Z,950.45
2019-05-10T21:49:13.109Z,950.51
2019-05-10T21:51:39.487Z,950.51
2019-05-10T21:54:05.928Z,950.55
2019-05-10T21:56:35.502Z,950.57
2019-05-10T21:58:58.560Z,950.61
2019-05-10T22:01:24.895Z,950.59
2019-05-10T22:03:51.218Z,950.60
2019-05-10T22:06:17.544Z,950.59
2019-05-10T22:08:49.309Z,950.57
2019-05-10T22:11:10.237Z,950.53
2019-05-10T22:13:36.556Z,950.54
2019-05-10T22:16:02.885Z,950.57
2019-05-10T22:18:29.205Z,950.57
2019-05-10T22:20:55.540Z,950.63
2019-05-10T22:23:21.877Z,950.65
2019-05-10T22:25:48.211Z,950.59
2019-05-10T22:28:14.540Z,950.60
2019-05-10T22:30:40.872Z,950.59
2019-05-10T22:33:07.208Z,950.66
2019-05-10T22:35:33.530Z,950.69
2019-05-10T22:37:59.859Z,950.67
2019-05-10T22:40:26.184Z,950.71
2019-05-10T22:42:52.512Z,950.72
2019-05-10T22:45:18.830Z,950.72
2019-05-10T22:47:45.185Z,950.74
2019-05-10T22:50:11.510Z,950.71
2019-05-10T22:52:37.837Z,950.75
2019-05-10T22:55:04.174Z,950.79
2019-05-10T22:57:30.495Z,950.71
2019-05-10T22:59:56.818Z,950.75
2019-05-10T23:02:23.150Z,950.77
2019-05-10T23:04:49.479Z,950.79
2019-05-10T23:07:15.811Z,950.78
2019-05-10T23:09:42.127Z,950.74
2019-05-10T23:12:08.467Z,950.76
2019-05-10T23:14:34.824Z,950.80
2019-05-10T23:17:01.147Z,950.70
2019-05-10T23:19:27.458Z,950.73
2019-05-10T23:21:53.795Z,950.75
2019-05-10T23:24:20.095Z,950.79
2019-05-10T23:26:46.421Z,950.77
2019-05-10T23:29:12.751Z,950.75
2019-05-10T23:31:39.083Z,950.86
2019-05-10T23:34:05.406Z,950.88
2019-05-10T23:36:31.760Z,950.84
2019-05-10T23:38:58.085Z,950.83
2019-05-10T23:41:24.407Z,950.76
2019-05-10T23:43:50.742Z,950.80
2019-05-10T23:46:17.075Z,950.83
2019-05-10T23:48:43.411Z,950.88
2019-05-10T23:51:09.733Z,950.89
2019-05-10T23:53:36.063Z,950.88
2019-05-10T23:56:02.383Z,950.85
2019-05-10T23:58:28.711Z,950.94
